sensor_id;sensor_type;location;lat;lon;timestamp;P1;durP1;ratioP1;P2;durP2;ratioP2
34926;SDS011;21132;48.308;14.274;2023-02-28T00:00:26;14.13;;;7.25;;
34926;SDS011;21132;48.308;14.274;2023-02-28T00:02:52;13.32;;;7.65;;
34926;SDS011;21132;48.308;14.274;2023-02-28T00:05:20;14.93;;;8.82;;
34926;SDS011;21132;48.308;14.274;2023-02-28T00:07:48;14.07;;;7.00;;
34926;SDS011;21132;48.308;14.274;2023-02-28T00:10:24;13.50;;;7.80;;
34926;SDS011;21132;48.308;14.274;2023-02-28T00:12:52;10.38;;;6.90;;
34926;SDS011;21132;48.308;14.274;2023-02-28T00:15:21;16.63;;;6.93;;
34926;SDS011;21132;48.308;14.274;2023-02-28T00:17:48;13.35;;;6.88;;
34926;SDS011;21132;48.308;14.274;2023-02-28T00:20:14;27.13;;;7.65;;
34926;SDS011;21132;48.308;14.274;2023-02-28T00:22:42;12.25;;;7.25;;
34926;SDS011;21132;48.308;14.274;2023-02-28T00:25:13;13.82;;;6.93;;
34926;SDS011;21132;48.308;14.274;2023-02-28T00:27:40;11.15;;;7.00;;
34926;SDS011;21132;48.308;14.274;2023-02-28T00:30:08;13.95;;;7.10;;
34926;SDS011;21132;48.308;14.274;2023-02-28T00:32:37;12.07;;;6.70;;
34926;SDS011;21132;48.308;14.274;2023-02-28T00:35:03;11.25;;;7.13;;
34926;SDS011;21132;48.308;14.274;2023-02-28T00:37:29;20.65;;;7.95;;
34926;SDS011;21132;48.308;14.274;2023-02-28T00:39:55;12.95;;;6.93;;
34926;SDS011;21132;48.308;14.274;2023-02-28T00:42:21;15.10;;;8.18;;
34926;SDS011;21132;48.308;14.274;2023-02-28T00:44:47;12.18;;;6.97;;
34926;SDS011;21132;48.308;14.274;2023-02-28T00:47:14;14.30;;;8.00;;
34926;SDS011;21132;48.308;14.274;2023-02-28T00:49:40;13.40;;;7.22;;
34926;SDS011;21132;48.308;14.274;2023-02-28T00:52:06;17.70;;;7.78;;
34926;SDS011;21132;48.308;14.274;2023-02-28T00:54:32;15.95;;;8.05;;
34926;SDS011;21132;48.308;14.274;2023-02-28T00:56:58;14.35;;;8.30;;
34926;SDS011;21132;48.308;14.274;2023-02-28T00:59:25;14.23;;;7.90;;
34926;SDS011;21132;48.308;14.274;2023-02-28T01:01:50;14.18;;;7.93;;
34926;SDS011;21132;48.308;14.274;2023-02-28T01:04:16;15.77;;;8.40;;
34926;SDS011;21132;48.308;14.274;2023-02-28T01:06:42;14.35;;;7.35;;
34926;SDS011;21132;48.308;14.274;2023-02-28T01:09:08;15.75;;;8.85;;
34926;SDS011;21132;48.308;14.274;2023-02-28T01:11:35;19.65;;;8.68;;
34926;SDS011;21132;48.308;14.274;2023-02-28T01:14:01;17.30;;;8.63;;
34926;SDS011;21132;48.308;14.274;2023-02-28T01:16:29;14.52;;;7.78;;
34926;SDS011;21132;48.308;14.274;2023-02-28T01:18:55;13.07;;;8.32;;
34926;SDS011;21132;48.308;14.274;2023-02-28T01:21:21;16.20;;;8.65;;
34926;SDS011;21132;48.308;14.274;2023-02-28T01:23:47;12.23;;;7.55;;
34926;SDS011;21132;48.308;14.274;2023-02-28T01:26:15;14.00;;;7.72;;
34926;SDS011;21132;48.308;14.274;2023-02-28T01:28:45;15.38;;;7.93;;
34926;SDS011;21132;48.308;14.274;2023-02-28T01:31:12;17.60;;;9.05;;
34926;SDS011;21132;48.308;14.274;2023-02-28T01:33:38;15.25;;;8.52;;
34926;SDS011;21132;48.308;14.274;2023-02-28T01:36:06;14.05;;;8.35;;
34926;SDS011;21132;48.308;14.274;2023-02-28T01:38:34;16.80;;;8.55;;
34926;SDS011;21132;48.308;14.274;2023-02-28T01:41:00;14.60;;;8.55;;
34926;SDS011;21132;48.308;14.274;2023-02-28T01:43:28;20.67;;;8.90;;
34926;SDS011;21132;48.308;14.274;2023-02-28T01:45:56;19.02;;;9.48;;
34926;SDS011;21132;48.308;14.274;2023-02-28T01:48:24;14.63;;;8.27;;
34926;SDS011;21132;48.308;14.274;2023-02-28T01:50:56;17.42;;;8.73;;
34926;SDS011;21132;48.308;14.274;2023-02-28T01:53:29;15.07;;;8.30;;
34926;SDS011;21132;48.308;14.274;2023-02-28T01:56:05;16.15;;;8.68;;
34926;SDS011;21132;48.308;14.274;2023-02-28T01:58:33;15.10;;;8.35;;
34926;SDS011;21132;48.308;14.274;2023-02-28T02:01:01;15.73;;;8.40;;
34926;SDS011;21132;48.308;14.274;2023-02-28T02:03:28;15.73;;;9.00;;
34926;SDS011;21132;48.308;14.274;2023-02-28T02:05:55;13.55;;;8.07;;
34926;SDS011;21132;48.308;14.274;2023-02-28T02:08:22;16.88;;;8.27;;
34926;SDS011;21132;48.308;14.274;2023-02-28T02:11:00;15.13;;;8.50;;
34926;SDS011;21132;48.308;14.274;2023-02-28T02:13:34;15.63;;;9.30;;
34926;SDS011;21132;48.308;14.274;2023-02-28T02:16:32;17.80;;;8.45;;
34926;SDS011;21132;48.308;14.274;2023-02-28T02:36:28;14.82;;;8.55;;
34926;SDS011;21132;48.308;14.274;2023-02-28T02:39:06;20.90;;;7.88;;
34926;SDS011;21132;48.308;14.274;2023-02-28T02:41:52;14.95;;;8.10;;
34926;SDS011;21132;48.308;14.274;2023-02-28T02:46:45;17.80;;;8.68;;
34926;SDS011;21132;48.308;14.274;2023-02-28T02:49:16;15.90;;;7.68;;
34926;SDS011;21132;48.308;14.274;2023-02-28T02:51:53;14.55;;;7.70;;
34926;SDS011;21132;48.308;14.274;2023-02-28T02:54:28;16.83;;;8.55;;
34926;SDS011;21132;48.308;14.274;2023-02-28T02:56:59;15.35;;;7.38;;
34926;SDS011;21132;48.308;14.274;2023-02-28T02:59:29;15.65;;;8.40;;
34926;SDS011;21132;48.308;14.274;2023-02-28T03:01:58;17.85;;;9.02;;
34926;SDS011;21132;48.308;14.274;2023-02-28T03:04:28;18.50;;;8.43;;
34926;SDS011;21132;48.308;14.274;2023-02-28T03:06:57;18.08;;;8.60;;
34926;SDS011;21132;48.308;14.274;2023-02-28T03:09:23;17.67;;;7.72;;
34926;SDS011;21132;48.308;14.274;2023-02-28T03:11:50;16.65;;;8.80;;
34926;SDS011;21132;48.308;14.274;2023-02-28T03:19:47;16.20;;;8.35;;
34926;SDS011;21132;48.308;14.274;2023-02-28T03:25:20;14.93;;;7.63;;
34926;SDS011;21132;48.308;14.274;2023-02-28T03:30:33;15.77;;;9.13;;
34926;SDS011;21132;48.308;14.274;2023-02-28T03:33:21;18.02;;;8.80;;
34926;SDS011;21132;48.308;14.274;2023-02-28T03:36:00;17.05;;;9.00;;
34926;SDS011;21132;48.308;14.274;2023-02-28T03:38:31;15.93;;;8.50;;
34926;SDS011;21132;48.308;14.274;2023-02-28T03:41:14;17.45;;;8.65;;
34926;SDS011;21132;48.308;14.274;2023-02-28T03:44:06;19.80;;;8.95;;
34926;SDS011;21132;48.308;14.274;2023-02-28T03:46:41;13.98;;;7.82;;
34926;SDS011;21132;48.308;14.274;2023-02-28T03:49:35;13.90;;;8.48;;
34926;SDS011;21132;48.308;14.274;2023-02-28T03:52:12;18.33;;;9.20;;
34926;SDS011;21132;48.308;14.274;2023-02-28T03:54:49;15.23;;;8.75;;
34926;SDS011;21132;48.308;14.274;2023-02-28T03:58:03;14.68;;;8.38;;
34926;SDS011;21132;48.308;14.274;2023-02-28T04:00:21;18.17;;;8.15;;
34926;SDS011;21132;48.308;14.274;2023-02-28T04:02:55;21.10;;;9.60;;
34926;SDS011;21132;48.308;14.274;2023-02-28T04:05:21;25.10;;;8.75;;
34926;SDS011;21132;48.308;14.274;2023-02-28T04:07:48;17.05;;;8.13;;
34926;SDS011;21132;48.308;14.274;2023-02-28T04:10:14;20.00;;;8.90;;
34926;SDS011;21132;48.308;14.274;2023-02-28T04:12:41;18.17;;;8.75;;
34926;SDS011;21132;48.308;14.274;2023-02-28T04:15:07;18.63;;;8.55;;
34926;SDS011;21132;48.308;14.274;2023-02-28T04:17:35;17.80;;;8.40;;
34926;SDS011;21132;48.308;14.274;2023-02-28T04:20:01;20.40;;;8.98;;
34926;SDS011;21132;48.308;14.274;2023-02-28T04:22:28;17.08;;;8.90;;
34926;SDS011;21132;48.308;14.274;2023-02-28T04:24:54;14.70;;;8.50;;
34926;SDS011;21132;48.308;14.274;2023-02-28T04:27:20;17.25;;;8.75;;
34926;SDS011;21132;48.308;14.274;2023-02-28T04:29:46;16.45;;;8.25;;
34926;SDS011;21132;48.308;14.274;2023-02-28T04:32:12;17.88;;;8.80;;
34926;SDS011;21132;48.308;14.274;2023-02-28T04:34:38;17.42;;;8.48;;
34926;SDS011;21132;48.308;14.274;2023-02-28T04:37:04;18.92;;;8.68;;
34926;SDS011;21132;48.308;14.274;2023-02-28T04:39:34;15.15;;;7.70;;
34926;SDS011;21132;48.308;14.274;2023-02-28T04:42:00;17.95;;;8.13;;
34926;SDS011;21132;48.308;14.274;2023-02-28T04:44:26;16.58;;;8.05;;
34926;SDS011;21132;48.308;14.274;2023-02-28T04:46:52;16.20;;;8.70;;
34926;SDS011;21132;48.308;14.274;2023-02-28T04:49:18;20.27;;;9.63;;
34926;SDS011;21132;48.308;14.274;2023-02-28T04:51:43;20.15;;;8.55;;
34926;SDS011;21132;48.308;14.274;2023-02-28T04:54:09;15.48;;;8.68;;
34926;SDS011;21132;48.308;14.274;2023-02-28T04:56:35;18.02;;;8.48;;
34926;SDS011;21132;48.308;14.274;2023-02-28T04:59:01;16.70;;;8.02;;
34926;SDS011;21132;48.308;14.274;2023-02-28T05:01:28;14.07;;;7.88;;
34926;SDS011;21132;48.308;14.274;2023-02-28T05:03:56;14.27;;;7.95;;
34926;SDS011;21132;48.308;14.274;2023-02-28T05:06:24;19.48;;;8.85;;
34926;SDS011;21132;48.308;14.274;2023-02-28T05:08:51;18.58;;;9.75;;
34926;SDS011;21132;48.308;14.274;2023-02-28T05:11:20;16.40;;;7.70;;
34926;SDS011;21132;48.308;14.274;2023-02-28T05:13:48;15.80;;;8.68;;
34926;SDS011;21132;48.308;14.274;2023-02-28T05:16:15;16.73;;;8.52;;
34926;SDS011;21132;48.308;14.274;2023-02-28T05:18:41;17.95;;;9.15;;
34926;SDS011;21132;48.308;14.274;2023-02-28T05:21:17;20.15;;;8.80;;
34926;SDS011;21132;48.308;14.274;2023-02-28T05:23:57;19.35;;;8.98;;
34926;SDS011;21132;48.308;14.274;2023-02-28T05:26:24;15.80;;;8.18;;
34926;SDS011;21132;48.308;14.274;2023-02-28T05:28:50;17.15;;;7.30;;
34926;SDS011;21132;48.308;14.274;2023-02-28T05:31:16;15.75;;;8.15;;
34926;SDS011;21132;48.308;14.274;2023-02-28T05:33:42;19.48;;;8.65;;
34926;SDS011;21132;48.308;14.274;2023-02-28T05:36:07;18.95;;;8.15;;
34926;SDS011;21132;48.308;14.274;2023-02-28T05:38:33;18.42;;;8.82;;
34926;SDS011;21132;48.308;14.274;2023-02-28T05:40:59;28.52;;;11.45;;
34926;SDS011;21132;48.308;14.274;2023-02-28T05:43:25;16.50;;;8.38;;
34926;SDS011;21132;48.308;14.274;2023-02-28T05:45:51;19.23;;;9.20;;
34926;SDS011;21132;48.308;14.274;2023-02-28T05:48:16;17.73;;;8.85;;
34926;SDS011;21132;48.308;14.274;2023-02-28T05:50:43;14.20;;;7.40;;
34926;SDS011;21132;48.308;14.274;2023-02-28T05:53:11;16.45;;;7.88;;
34926;SDS011;21132;48.308;14.274;2023-02-28T05:55:36;16.73;;;8.32;;
34926;SDS011;21132;48.308;14.274;2023-02-28T05:58:03;14.27;;;7.30;;
34926;SDS011;21132;48.308;14.274;2023-02-28T06:00:29;22.50;;;7.95;;
34926;SDS011;21132;48.308;14.274;2023-02-28T06:02:54;17.77;;;8.30;;
34926;SDS011;21132;48.308;14.274;2023-02-28T06:05:23;23.88;;;8.48;;
34926;SDS011;21132;48.308;14.274;2023-02-28T06:07:49;15.65;;;8.32;;
34926;SDS011;21132;48.308;14.274;2023-02-28T06:10:15;17.00;;;8.32;;
34926;SDS011;21132;48.308;14.274;2023-02-28T06:12:41;22.70;;;9.10;;
34926;SDS011;21132;48.308;14.274;2023-02-28T06:15:09;18.83;;;8.13;;
34926;SDS011;21132;48.308;14.274;2023-02-28T06:17:37;14.55;;;7.10;;
34926;SDS011;21132;48.308;14.274;2023-02-28T06:20:04;19.88;;;8.60;;
34926;SDS011;21132;48.308;14.274;2023-02-28T06:22:31;16.73;;;8.45;;
34926;SDS011;21132;48.308;14.274;2023-02-28T06:24:57;14.63;;;7.95;;
34926;SDS011;21132;48.308;14.274;2023-02-28T06:27:23;17.80;;;8.13;;
34926;SDS011;21132;48.308;14.274;2023-02-28T06:29:53;20.60;;;8.88;;
34926;SDS011;21132;48.308;14.274;2023-02-28T06:32:20;13.45;;;7.60;;
34926;SDS011;21132;48.308;14.274;2023-02-28T06:34:46;20.90;;;8.15;;
34926;SDS011;21132;48.308;14.274;2023-02-28T06:37:12;18.98;;;9.65;;
34926;SDS011;21132;48.308;14.274;2023-02-28T06:39:38;19.67;;;9.30;;
34926;SDS011;21132;48.308;14.274;2023-02-28T06:42:04;19.92;;;8.95;;
34926;SDS011;21132;48.308;14.274;2023-02-28T06:44:30;17.02;;;8.32;;
34926;SDS011;21132;48.308;14.274;2023-02-28T06:47:00;24.65;;;7.85;;
34926;SDS011;21132;48.308;14.274;2023-02-28T06:49:28;17.83;;;8.45;;
34926;SDS011;21132;48.308;14.274;2023-02-28T06:51:55;16.60;;;8.05;;
34926;SDS011;21132;48.308;14.274;2023-02-28T06:54:21;20.33;;;9.00;;
34926;SDS011;21132;48.308;14.274;2023-02-28T06:56:46;15.75;;;8.02;;
34926;SDS011;21132;48.308;14.274;2023-02-28T06:59:12;16.17;;;7.85;;
34926;SDS011;21132;48.308;14.274;2023-02-28T07:01:39;14.57;;;8.52;;
34926;SDS011;21132;48.308;14.274;2023-02-28T07:04:05;16.88;;;8.98;;
34926;SDS011;21132;48.308;14.274;2023-02-28T07:06:31;16.35;;;8.23;;
34926;SDS011;21132;48.308;14.274;2023-02-28T07:08:57;16.58;;;8.00;;
34926;SDS011;21132;48.308;14.274;2023-02-28T07:11:23;19.55;;;8.18;;
34926;SDS011;21132;48.308;14.274;2023-02-28T07:13:51;17.27;;;7.88;;
34926;SDS011;21132;48.308;14.274;2023-02-28T07:16:21;14.73;;;8.52;;
34926;SDS011;21132;48.308;14.274;2023-02-28T07:18:48;16.00;;;7.80;;
34926;SDS011;21132;48.308;14.274;2023-02-28T07:21:14;15.43;;;7.78;;
34926;SDS011;21132;48.308;14.274;2023-02-28T07:23:40;22.58;;;7.88;;
34926;SDS011;21132;48.308;14.274;2023-02-28T07:26:07;14.70;;;7.72;;
34926;SDS011;21132;48.308;14.274;2023-02-28T07:28:37;16.10;;;8.68;;
34926;SDS011;21132;48.308;14.274;2023-02-28T07:31:06;15.40;;;8.13;;
34926;SDS011;21132;48.308;14.274;2023-02-28T07:33:33;16.25;;;8.77;;
34926;SDS011;21132;48.308;14.274;2023-02-28T07:36:03;17.35;;;8.38;;
34926;SDS011;21132;48.308;14.274;2023-02-28T07:38:30;13.38;;;8.05;;
34926;SDS011;21132;48.308;14.274;2023-02-28T07:41:08;15.82;;;8.85;;
34926;SDS011;21132;48.308;14.274;2023-02-28T07:43:36;20.27;;;8.18;;
34926;SDS011;21132;48.308;14.274;2023-02-28T07:46:10;15.13;;;7.82;;
34926;SDS011;21132;48.308;14.274;2023-02-28T07:48:37;15.82;;;8.10;;
34926;SDS011;21132;48.308;14.274;2023-02-28T07:51:03;22.10;;;9.07;;
34926;SDS011;21132;48.308;14.274;2023-02-28T07:53:35;14.32;;;7.93;;
34926;SDS011;21132;48.308;14.274;2023-02-28T07:56:10;16.17;;;8.15;;
34926;SDS011;21132;48.308;14.274;2023-02-28T07:58:36;17.48;;;8.60;;
34926;SDS011;21132;48.308;14.274;2023-02-28T08:01:06;19.30;;;8.95;;
34926;SDS011;21132;48.308;14.274;2023-02-28T08:03:33;17.08;;;8.55;;
34926;SDS011;21132;48.308;14.274;2023-02-28T08:05:58;15.07;;;8.68;;
34926;SDS011;21132;48.308;14.274;2023-02-28T08:08:24;17.23;;;8.73;;
34926;SDS011;21132;48.308;14.274;2023-02-28T08:10:54;20.10;;;8.52;;
34926;SDS011;21132;48.308;14.274;2023-02-28T08:13:20;16.02;;;8.93;;
34926;SDS011;21132;48.308;14.274;2023-02-28T08:15:45;18.83;;;9.43;;
34926;SDS011;21132;48.308;14.274;2023-02-28T08:18:12;16.85;;;8.57;;
34926;SDS011;21132;48.308;14.274;2023-02-28T08:20:38;12.77;;;7.47;;
34926;SDS011;21132;48.308;14.274;2023-02-28T08:23:03;15.02;;;8.52;;
34926;SDS011;21132;48.308;14.274;2023-02-28T08:25:29;12.15;;;6.85;;
34926;SDS011;21132;48.308;14.274;2023-02-28T08:27:55;18.65;;;9.10;;
34926;SDS011;21132;48.308;14.274;2023-02-28T08:30:21;17.85;;;8.90;;
34926;SDS011;21132;48.308;14.274;2023-02-28T08:32:46;21.73;;;8.95;;
34926;SDS011;21132;48.308;14.274;2023-02-28T08:35:12;13.68;;;8.20;;
34926;SDS011;21132;48.308;14.274;2023-02-28T08:37:38;16.60;;;8.07;;
34926;SDS011;21132;48.308;14.274;2023-02-28T08:40:04;14.98;;;8.70;;
34926;SDS011;21132;48.308;14.274;2023-02-28T08:42:31;14.20;;;8.68;;
34926;SDS011;21132;48.308;14.274;2023-02-28T08:44:57;13.85;;;8.30;;
34926;SDS011;21132;48.308;14.274;2023-02-28T08:47:23;16.10;;;9.02;;
34926;SDS011;21132;48.308;14.274;2023-02-28T08:49:49;13.68;;;7.70;;
34926;SDS011;21132;48.308;14.274;2023-02-28T08:52:14;15.63;;;8.85;;
34926;SDS011;21132;48.308;14.274;2023-02-28T08:54:40;12.65;;;7.45;;
34926;SDS011;21132;48.308;14.274;2023-02-28T08:57:06;18.95;;;8.50;;
34926;SDS011;21132;48.308;14.274;2023-02-28T08:59:32;20.02;;;8.98;;
34926;SDS011;21132;48.308;14.274;2023-02-28T09:01:58;20.67;;;9.02;;
34926;SDS011;21132;48.308;14.274;2023-02-28T09:04:24;16.15;;;9.30;;
34926;SDS011;21132;48.308;14.274;2023-02-28T09:06:50;17.75;;;8.52;;
34926;SDS011;21132;48.308;14.274;2023-02-28T09:09:16;15.43;;;8.85;;
34926;SDS011;21132;48.308;14.274;2023-02-28T09:11:41;17.20;;;8.90;;
34926;SDS011;21132;48.308;14.274;2023-02-28T09:14:07;19.13;;;9.70;;
34926;SDS011;21132;48.308;14.274;2023-02-28T09:16:33;12.98;;;8.07;;
34926;SDS011;21132;48.308;14.274;2023-02-28T09:18:59;16.50;;;8.75;;
34926;SDS011;21132;48.308;14.274;2023-02-28T09:21:26;25.70;;;9.00;;
34926;SDS011;21132;48.308;14.274;2023-02-28T09:23:52;21.25;;;9.00;;
34926;SDS011;21132;48.308;14.274;2023-02-28T09:26:19;14.63;;;8.95;;
34926;SDS011;21132;48.308;14.274;2023-02-28T09:28:51;14.38;;;8.45;;
34926;SDS011;21132;48.308;14.274;2023-02-28T09:31:19;18.73;;;9.75;;
34926;SDS011;21132;48.308;14.274;2023-02-28T09:33:48;15.77;;;8.77;;
34926;SDS011;21132;48.308;14.274;2023-02-28T09:36:15;15.73;;;8.23;;
34926;SDS011;21132;48.308;14.274;2023-02-28T09:38:40;29.85;;;9.23;;
34926;SDS011;21132;48.308;14.274;2023-02-28T09:41:14;16.58;;;9.20;;
34926;SDS011;21132;48.308;14.274;2023-02-28T09:43:46;18.80;;;9.45;;
34926;SDS011;21132;48.308;14.274;2023-02-28T09:46:20;24.58;;;9.95;;
34926;SDS011;21132;48.308;14.274;2023-02-28T09:48:52;15.88;;;9.15;;
34926;SDS011;21132;48.308;14.274;2023-02-28T09:51:30;26.50;;;8.88;;
34926;SDS011;21132;48.308;14.274;2023-02-28T09:54:23;15.85;;;9.18;;
34926;SDS011;21132;48.308;14.274;2023-02-28T10:05:17;15.23;;;9.05;;
34926;SDS011;21132;48.308;14.274;2023-02-28T10:10:34;20.42;;;9.68;;
34926;SDS011;21132;48.308;14.274;2023-02-28T10:13:05;20.77;;;8.93;;
34926;SDS011;21132;48.308;14.274;2023-02-28T10:15:38;17.60;;;9.70;;
34926;SDS011;21132;48.308;14.274;2023-02-28T10:18:06;18.08;;;9.02;;
34926;SDS011;21132;48.308;14.274;2023-02-28T10:20:38;21.40;;;9.32;;
34926;SDS011;21132;48.308;14.274;2023-02-28T10:23:17;21.02;;;9.88;;
34926;SDS011;21132;48.308;14.274;2023-02-28T10:25:50;15.90;;;8.73;;
34926;SDS011;21132;48.308;14.274;2023-02-28T10:28:41;15.30;;;8.85;;
34926;SDS011;21132;48.308;14.274;2023-02-28T10:31:08;14.20;;;7.70;;
34926;SDS011;21132;48.308;14.274;2023-02-28T10:33:39;16.95;;;8.25;;
34926;SDS011;21132;48.308;14.274;2023-02-28T10:36:05;15.13;;;8.20;;
34926;SDS011;21132;48.308;14.274;2023-02-28T10:38:36;22.77;;;8.98;;
34926;SDS011;21132;48.308;14.274;2023-02-28T10:41:14;12.52;;;7.25;;
34926;SDS011;21132;48.308;14.274;2023-02-28T10:43:53;17.58;;;8.60;;
34926;SDS011;21132;48.308;14.274;2023-02-28T10:46:45;12.93;;;8.07;;
34926;SDS011;21132;48.308;14.274;2023-02-28T10:49:17;13.73;;;7.50;;
34926;SDS011;21132;48.308;14.274;2023-02-28T10:51:46;17.33;;;8.18;;
34926;SDS011;21132;48.308;14.274;2023-02-28T10:54:22;13.38;;;7.75;;
34926;SDS011;21132;48.308;14.274;2023-02-28T10:59:42;18.58;;;8.13;;
34926;SDS011;21132;48.308;14.274;2023-02-28T11:04:55;15.45;;;8.70;;
34926;SDS011;21132;48.308;14.274;2023-02-28T11:07:21;17.83;;;8.18;;
34926;SDS011;21132;48.308;14.274;2023-02-28T11:09:51;17.05;;;8.73;;
34926;SDS011;21132;48.308;14.274;2023-02-28T11:14:57;14.65;;;8.10;;
34926;SDS011;21132;48.308;14.274;2023-02-28T11:17:28;13.20;;;8.35;;
34926;SDS011;21132;48.308;14.274;2023-02-28T11:19:57;17.67;;;7.65;;
34926;SDS011;21132;48.308;14.274;2023-02-28T11:22:29;15.23;;;8.40;;
34926;SDS011;21132;48.308;14.274;2023-02-28T11:24:59;17.67;;;8.57;;
34926;SDS011;21132;48.308;14.274;2023-02-28T11:29:59;15.63;;;8.32;;
34926;SDS011;21132;48.308;14.274;2023-02-28T11:32:26;15.07;;;8.25;;
34926;SDS011;21132;48.308;14.274;2023-02-28T11:37:55;18.95;;;8.00;;
34926;SDS011;21132;48.308;14.274;2023-02-28T11:40:24;14.60;;;7.95;;
34926;SDS011;21132;48.308;14.274;2023-02-28T11:49:02;11.83;;;8.03;;
34926;SDS011;21132;48.308;14.274;2023-02-28T11:57:15;13.52;;;8.38;;
34926;SDS011;21132;48.308;14.274;2023-02-28T11:59:51;16.23;;;8.13;;
34926;SDS011;21132;48.308;14.274;2023-02-28T12:16:57;13.32;;;8.50;;
34926;SDS011;21132;48.308;14.274;2023-02-28T12:19:53;13.18;;;7.85;;
34926;SDS011;21132;48.308;14.274;2023-02-28T12:22:43;12.50;;;8.20;;
34926;SDS011;21132;48.308;14.274;2023-02-28T12:25:29;16.35;;;7.95;;
34926;SDS011;21132;48.308;14.274;2023-02-28T12:28:07;12.27;;;8.13;;
34926;SDS011;21132;48.308;14.274;2023-02-28T12:30:41;19.30;;;8.68;;
34926;SDS011;21132;48.308;14.274;2023-02-28T12:33:34;18.48;;;9.02;;
34926;SDS011;21132;48.308;14.274;2023-02-28T12:36:05;15.60;;;8.73;;
34926;SDS011;21132;48.308;14.274;2023-02-28T12:38:43;11.85;;;7.85;;
34926;SDS011;21132;48.308;14.274;2023-02-28T12:41:17;11.77;;;7.90;;
34926;SDS011;21132;48.308;14.274;2023-02-28T12:43:52;13.35;;;9.18;;
34926;SDS011;21132;48.308;14.274;2023-02-28T12:46:27;16.73;;;8.52;;
34926;SDS011;21132;48.308;14.274;2023-02-28T12:48:57;13.18;;;7.75;;
34926;SDS011;21132;48.308;14.274;2023-02-28T12:51:26;17.33;;;9.57;;
34926;SDS011;21132;48.308;14.274;2023-02-28T12:53:56;19.38;;;10.18;;
34926;SDS011;21132;48.308;14.274;2023-02-28T13:01:57;16.15;;;9.70;;
34926;SDS011;21132;48.308;14.274;2023-02-28T13:04:52;14.07;;;8.52;;
34926;SDS011;21132;48.308;14.274;2023-02-28T13:10:11;13.50;;;9.02;;
34926;SDS011;21132;48.308;14.274;2023-02-28T13:12:47;15.23;;;8.68;;
34926;SDS011;21132;48.308;14.274;2023-02-28T13:15:19;15.93;;;8.35;;
34926;SDS011;21132;48.308;14.274;2023-02-28T13:17:50;14.13;;;8.60;;
34926;SDS011;21132;48.308;14.274;2023-02-28T13:20:25;12.20;;;8.13;;
34926;SDS011;21132;48.308;14.274;2023-02-28T13:22:59;17.83;;;9.18;;
34926;SDS011;21132;48.308;14.274;2023-02-28T13:28:13;19.80;;;8.98;;
34926;SDS011;21132;48.308;14.274;2023-02-28T13:31:14;14.65;;;8.95;;
34926;SDS011;21132;48.308;14.274;2023-02-28T13:38:48;14.23;;;9.10;;
34926;SDS011;21132;48.308;14.274;2023-02-28T13:41:51;16.70;;;9.63;;
34926;SDS011;21132;48.308;14.274;2023-02-28T13:57:30;13.75;;;9.18;;
34926;SDS011;21132;48.308;14.274;2023-02-28T14:00:17;19.02;;;9.77;;
34926;SDS011;21132;48.308;14.274;2023-02-28T14:05:45;19.45;;;9.40;;
34926;SDS011;21132;48.308;14.274;2023-02-28T14:08:18;13.18;;;7.82;;
34926;SDS011;21132;48.308;14.274;2023-02-28T14:10:49;13.50;;;8.45;;
34926;SDS011;21132;48.308;14.274;2023-02-28T14:16:16;13.50;;;7.82;;
34926;SDS011;21132;48.308;14.274;2023-02-28T14:18:56;26.13;;;10.68;;
34926;SDS011;21132;48.308;14.274;2023-02-28T14:21:31;14.15;;;8.70;;
34926;SDS011;21132;48.308;14.274;2023-02-28T14:37:44;13.60;;;8.70;;
34926;SDS011;21132;48.308;14.274;2023-02-28T14:40:14;18.48;;;10.15;;
34926;SDS011;21132;48.308;14.274;2023-02-28T14:42:46;16.27;;;9.27;;
34926;SDS011;21132;48.308;14.274;2023-02-28T14:45:20;14.75;;;9.35;;
34926;SDS011;21132;48.308;14.274;2023-02-28T14:47:48;15.25;;;10.25;;
34926;SDS011;21132;48.308;14.274;2023-02-28T14:50:20;15.55;;;8.93;;
34926;SDS011;21132;48.308;14.274;2023-02-28T14:52:49;14.77;;;9.52;;
34926;SDS011;21132;48.308;14.274;2023-02-28T14:55:18;16.45;;;10.23;;
34926;SDS011;21132;48.308;14.274;2023-02-28T15:00:29;18.42;;;10.35;;
34926;SDS011;21132;48.308;14.274;2023-02-28T15:02:57;17.90;;;10.73;;
34926;SDS011;21132;48.308;14.274;2023-02-28T15:10:39;18.15;;;10.25;;
34926;SDS011;21132;48.308;14.274;2023-02-28T15:13:20;19.48;;;10.57;;
34926;SDS011;21132;48.308;14.274;2023-02-28T15:15:52;17.73;;;10.32;;
34926;SDS011;21132;48.308;14.274;2023-02-28T15:21:19;15.53;;;10.47;;
34926;SDS011;21132;48.308;14.274;2023-02-28T15:23:47;17.52;;;11.15;;
34926;SDS011;21132;48.308;14.274;2023-02-28T15:26:19;21.80;;;10.73;;
34926;SDS011;21132;48.308;14.274;2023-02-28T15:28:51;20.95;;;12.25;;
34926;SDS011;21132;48.308;14.274;2023-02-28T15:31:40;19.30;;;11.45;;
34926;SDS011;21132;48.308;14.274;2023-02-28T15:34:18;18.38;;;11.68;;
34926;SDS011;21132;48.308;14.274;2023-02-28T15:36:46;20.10;;;11.38;;
34926;SDS011;21132;48.308;14.274;2023-02-28T15:39:20;15.80;;;10.32;;
34926;SDS011;21132;48.308;14.274;2023-02-28T15:41:51;18.98;;;10.90;;
34926;SDS011;21132;48.308;14.274;2023-02-28T15:44:34;19.67;;;10.95;;
34926;SDS011;21132;48.308;14.274;2023-02-28T15:47:07;18.83;;;10.68;;
34926;SDS011;21132;48.308;14.274;2023-02-28T15:49:47;21.73;;;11.80;;
34926;SDS011;21132;48.308;14.274;2023-02-28T15:55:11;20.83;;;11.65;;
34926;SDS011;21132;48.308;14.274;2023-02-28T15:57:44;22.77;;;12.30;;
34926;SDS011;21132;48.308;14.274;2023-02-28T16:00:13;19.40;;;11.38;;
34926;SDS011;21132;48.308;14.274;2023-02-28T16:02:43;22.48;;;13.57;;
34926;SDS011;21132;48.308;14.274;2023-02-28T16:07:35;22.65;;;14.15;;
34926;SDS011;21132;48.308;14.274;2023-02-28T16:10:08;27.83;;;13.30;;
34926;SDS011;21132;48.308;14.274;2023-02-28T16:12:36;20.58;;;12.73;;
34926;SDS011;21132;48.308;14.274;2023-02-28T16:15:20;22.17;;;13.48;;
34926;SDS011;21132;48.308;14.274;2023-02-28T16:17:46;18.42;;;12.68;;
34926;SDS011;21132;48.308;14.274;2023-02-28T16:20:14;23.50;;;13.25;;
34926;SDS011;21132;48.308;14.274;2023-02-28T16:22:44;24.42;;;12.98;;
34926;SDS011;21132;48.308;14.274;2023-02-28T16:25:11;21.77;;;13.45;;
34926;SDS011;21132;48.308;14.274;2023-02-28T16:27:41;18.92;;;12.73;;
34926;SDS011;21132;48.308;14.274;2023-02-28T16:30:15;27.58;;;13.43;;
34926;SDS011;21132;48.308;14.274;2023-02-28T16:32:43;22.92;;;13.27;;
34926;SDS011;21132;48.308;14.274;2023-02-28T16:35:10;22.77;;;13.05;;
34926;SDS011;21132;48.308;14.274;2023-02-28T16:37:37;23.35;;;13.38;;
34926;SDS011;21132;48.308;14.274;2023-02-28T16:40:03;22.63;;;12.95;;
34926;SDS011;21132;48.308;14.274;2023-02-28T16:42:29;23.50;;;13.82;;
34926;SDS011;21132;48.308;14.274;2023-02-28T16:44:57;21.27;;;12.93;;
34926;SDS011;21132;48.308;14.274;2023-02-28T16:47:23;19.67;;;13.05;;
34926;SDS011;21132;48.308;14.274;2023-02-28T16:49:51;22.27;;;13.55;;
34926;SDS011;21132;48.308;14.274;2023-02-28T16:52:18;23.38;;;14.20;;
34926;SDS011;21132;48.308;14.274;2023-02-28T16:54:44;21.35;;;12.98;;
34926;SDS011;21132;48.308;14.274;2023-02-28T16:57:16;21.17;;;12.90;;
34926;SDS011;21132;48.308;14.274;2023-02-28T16:59:48;29.45;;;14.27;;
34926;SDS011;21132;48.308;14.274;2023-02-28T17:02:17;23.00;;;13.93;;